sensor_id;sensor_type;location;lat;lon;timestamp;temperature;humidity
58153;DHT22;43967;51.634;5.566;2023-06-26T00:05:07;27.20;61.50
58153;DHT22;43967;51.634;5.566;2023-06-26T00:10:29;27.30;61.50
58153;DHT22;43967;51.634;5.566;2023-06-26T00:15:51;27.30;62.20
58153;DHT22;43967;51.634;5.566;2023-06-26T00:21:12;27.30;61.40
58153;DHT22;43967;51.634;5.566;2023-06-26T00:26:33;27.20;61.40
58153;DHT22;43967;51.634;5.566;2023-06-26T00:31:54;27.20;61.40
58153;DHT22;43967;51.634;5.566;2023-06-26T00:37:16;27.20;61.30
58153;DHT22;43967;51.634;5.566;2023-06-26T00:42:37;27.20;61.30
58153;DHT22;43967;51.634;5.566;2023-06-26T00:47:58;27.20;61.20
58153;DHT22;43967;51.634;5.566;2023-06-26T00:53:20;27.20;61.30
58153;DHT22;43967;51.634;5.566;2023-06-26T00:58:41;27.20;61.20
58153;DHT22;43967;51.634;5.566;2023-06-26T01:04:02;27.20;61.10
58153;DHT22;43967;51.634;5.566;2023-06-26T01:09:24;27.20;61.10
58153;DHT22;43967;51.634;5.566;2023-06-26T01:14:46;27.20;61.10
58153;DHT22;43967;51.634;5.566;2023-06-26T01:20:08;27.20;61.10
58153;DHT22;43967;51.634;5.566;2023-06-26T01:25:45;27.10;61.00
58153;DHT22;43967;51.634;5.566;2023-06-26T01:31:13;27.10;61.00
58153;DHT22;43967;51.634;5.566;2023-06-26T01:36:35;27.20;61.10
58153;DHT22;43967;51.634;5.566;2023-06-26T01:41:56;27.10;61.00
58153;DHT22;43967;51.634;5.566;2023-06-26T01:47:21;27.20;61.00
58153;DHT22;43967;51.634;5.566;2023-06-26T01:53:04;27.10;60.90
58153;DHT22;43967;51.634;5.566;2023-06-26T01:58:27;27.10;60.90
58153;DHT22;43967;51.634;5.566;2023-06-26T02:03:49;27.10;60.90
58153;DHT22;43967;51.634;5.566;2023-06-26T02:09:10;27.10;61.60
58153;DHT22;43967;51.634;5.566;2023-06-26T02:14:31;27.10;60.80
58153;DHT22;43967;51.634;5.566;2023-06-26T02:19:53;27.10;60.90
58153;DHT22;43967;51.634;5.566;2023-06-26T02:25:15;27.10;60.90
58153;DHT22;43967;51.634;5.566;2023-06-26T02:30:36;27.10;60.90
58153;DHT22;43967;51.634;5.566;2023-06-26T02:35:57;27.10;60.90
58153;DHT22;43967;51.634;5.566;2023-06-26T02:41:19;27.10;60.90
58153;DHT22;43967;51.634;5.566;2023-06-26T02:46:40;27.10;60.90
58153;DHT22;43967;51.634;5.566;2023-06-26T02:52:01;27.00;60.70
58153;DHT22;43967;51.634;5.566;2023-06-26T02:57:23;27.00;60.70
58153;DHT22;43967;51.634;5.566;2023-06-26T03:02:45;27.00;60.70
58153;DHT22;43967;51.634;5.566;2023-06-26T03:08:06;27.00;60.70
58153;DHT22;43967;51.634;5.566;2023-06-26T03:13:28;27.00;60.70
58153;DHT22;43967;51.634;5.566;2023-06-26T03:18:49;27.00;60.70
58153;DHT22;43967;51.634;5.566;2023-06-26T03:24:10;27.00;60.70
58153;DHT22;43967;51.634;5.566;2023-06-26T03:29:31;27.00;60.60
58153;DHT22;43967;51.634;5.566;2023-06-26T03:34:53;27.00;60.80
58153;DHT22;43967;51.634;5.566;2023-06-26T03:40:14;26.90;60.60
58153;DHT22;43967;51.634;5.566;2023-06-26T03:45:35;26.90;60.60
58153;DHT22;43967;51.634;5.566;2023-06-26T03:50:57;26.90;60.60
58153;DHT22;43967;51.634;5.566;2023-06-26T03:56:18;26.90;60.60
58153;DHT22;43967;51.634;5.566;2023-06-26T04:01:39;26.90;60.50
58153;DHT22;43967;51.634;5.566;2023-06-26T04:07:01;26.90;60.50
58153;DHT22;43967;51.634;5.566;2023-06-26T04:12:22;26.90;60.50
58153;DHT22;43967;51.634;5.566;2023-06-26T04:17:43;26.90;60.50
58153;DHT22;43967;51.634;5.566;2023-06-26T04:23:05;26.90;60.50
58153;DHT22;43967;51.634;5.566;2023-06-26T04:28:26;26.90;60.50
58153;DHT22;43967;51.634;5.566;2023-06-26T04:33:47;26.90;60.50
58153;DHT22;43967;51.634;5.566;2023-06-26T04:39:09;26.90;60.50
58153;DHT22;43967;51.634;5.566;2023-06-26T04:44:30;26.90;60.40
58153;DHT22;43967;51.634;5.566;2023-06-26T04:49:51;26.60;59.50
58153;DHT22;43967;51.634;5.566;2023-06-26T04:55:12;26.30;59.50
58153;DHT22;43967;51.634;5.566;2023-06-26T05:00:34;26.00;59.90
58153;DHT22;43967;51.634;5.566;2023-06-26T05:05:55;25.90;60.40
58153;DHT22;43967;51.634;5.566;2023-06-26T05:11:16;25.80;60.70
58153;DHT22;43967;51.634;5.566;2023-06-26T05:16:38;25.80;60.80
58153;DHT22;43967;51.634;5.566;2023-06-26T05:22:00;25.80;60.80
58153;DHT22;43967;51.634;5.566;2023-06-26T05:27:22;25.70;60.80
58153;DHT22;43967;51.634;5.566;2023-06-26T05:32:46;25.70;60.70
58153;DHT22;43967;51.634;5.566;2023-06-26T05:38:08;25.70;60.60
58153;DHT22;43967;51.634;5.566;2023-06-26T05:43:29;25.70;60.50
58153;DHT22;43967;51.634;5.566;2023-06-26T05:48:51;25.60;60.60
58153;DHT22;43967;51.634;5.566;2023-06-26T05:54:12;25.60;60.70
58153;DHT22;43967;51.634;5.566;2023-06-26T05:59:36;25.50;60.70
58153;DHT22;43967;51.634;5.566;2023-06-26T06:05:00;25.60;60.50
58153;DHT22;43967;51.634;5.566;2023-06-26T06:10:21;25.60;60.30
58153;DHT22;43967;51.634;5.566;2023-06-26T06:15:43;25.60;60.10
58153;DHT22;43967;51.634;5.566;2023-06-26T06:21:04;25.80;59.80
58153;DHT22;43967;51.634;5.566;2023-06-26T06:26:25;26.20;59.10
58153;DHT22;43967;51.634;5.566;2023-06-26T06:31:47;26.60;58.00
58153;DHT22;43967;51.634;5.566;2023-06-26T06:37:08;26.90;57.40
58153;DHT22;43967;51.634;5.566;2023-06-26T06:42:29;27.20;56.70
58153;DHT22;43967;51.634;5.566;2023-06-26T06:47:50;27.70;55.40
58153;DHT22;43967;51.634;5.566;2023-06-26T06:53:12;30.10;50.10
58153;DHT22;43967;51.634;5.566;2023-06-26T06:58:33;30.50;48.60
58153;DHT22;43967;51.634;5.566;2023-06-26T07:03:54;31.60;46.10
58153;DHT22;43967;51.634;5.566;2023-06-26T07:09:15;31.50;46.30
58153;DHT22;43967;51.634;5.566;2023-06-26T07:14:38;29.90;49.00
58153;DHT22;43967;51.634;5.566;2023-06-26T07:20:01;27.80;52.70
58153;DHT22;43967;51.634;5.566;2023-06-26T07:25:22;27.20;54.20
58153;DHT22;43967;51.634;5.566;2023-06-26T07:30:43;28.00;52.70
58153;DHT22;43967;51.634;5.566;2023-06-26T07:36:05;29.60;49.80
58153;DHT22;43967;51.634;5.566;2023-06-26T07:41:26;31.00;46.40
58153;DHT22;43967;51.634;5.566;2023-06-26T07:46:47;30.40;46.80
58153;DHT22;43967;51.634;5.566;2023-06-26T07:52:09;28.80;51.20
58153;DHT22;43967;51.634;5.566;2023-06-26T07:57:30;27.90;53.00
58153;DHT22;43967;51.634;5.566;2023-06-26T08:02:51;27.50;54.50
58153;DHT22;43967;51.634;5.566;2023-06-26T08:08:13;27.20;55.40
58153;DHT22;43967;51.634;5.566;2023-06-26T08:13:34;26.80;55.40
58153;DHT22;43967;51.634;5.566;2023-06-26T08:18:55;26.70;55.30
58153;DHT22;43967;51.634;5.566;2023-06-26T08:24:17;26.60;55.40
58153;DHT22;43967;51.634;5.566;2023-06-26T08:29:38;26.60;55.40
58153;DHT22;43967;51.634;5.566;2023-06-26T08:34:59;26.60;54.40
58153;DHT22;43967;51.634;5.566;2023-06-26T08:40:21;26.50;52.00
58153;DHT22;43967;51.634;5.566;2023-06-26T08:45:42;26.40;52.60
58153;DHT22;43967;51.634;5.566;2023-06-26T08:51:09;26.40;52.50
58153;DHT22;43967;51.634;5.566;2023-06-26T08:56:42;26.40;52.10
58153;DHT22;43967;51.634;5.566;2023-06-26T09:02:04;26.40;52.10
58153;DHT22;43967;51.634;5.566;2023-06-26T09:07:25;26.50;52.60
58153;DHT22;43967;51.634;5.566;2023-06-26T09:12:47;26.70;51.70
58153;DHT22;43967;51.634;5.566;2023-06-26T09:18:08;26.70;52.50
58153;DHT22;43967;51.634;5.566;2023-06-26T09:23:30;26.70;51.90
58153;DHT22;43967;51.634;5.566;2023-06-26T09:28:51;26.70;52.00
58153;DHT22;43967;51.634;5.566;2023-06-26T09:34:12;26.60;51.70
58153;DHT22;43967;51.634;5.566;2023-06-26T09:39:34;26.70;52.00
58153;DHT22;43967;51.634;5.566;2023-06-26T09:44:55;26.60;50.80
58153;DHT22;43967;51.634;5.566;2023-06-26T09:50:23;26.50;50.20
58153;DHT22;43967;51.634;5.566;2023-06-26T09:55:44;26.60;50.50
58153;DHT22;43967;51.634;5.566;2023-06-26T10:01:06;26.60;50.30
58153;DHT22;43967;51.634;5.566;2023-06-26T10:06:31;26.70;50.10
58153;DHT22;43967;51.634;5.566;2023-06-26T10:12:09;26.60;49.20
58153;DHT22;43967;51.634;5.566;2023-06-26T10:17:36;26.50;49.80
58153;DHT22;43967;51.634;5.566;2023-06-26T10:23:00;26.40;49.00
58153;DHT22;43967;51.634;5.566;2023-06-26T10:28:25;26.50;48.70
58153;DHT22;43967;51.634;5.566;2023-06-26T10:33:49;26.50;48.60
58153;DHT22;43967;51.634;5.566;2023-06-26T10:39:10;26.50;48.50
58153;DHT22;43967;51.634;5.566;2023-06-26T10:44:43;26.60;47.90
58153;DHT22;43967;51.634;5.566;2023-06-26T10:50:22;26.60;47.10
58153;DHT22;43967;51.634;5.566;2023-06-26T11:01:22;26.60;47.50
58153;DHT22;43967;51.634;5.566;2023-06-26T11:06:46;26.60;47.10
58153;DHT22;43967;51.634;5.566;2023-06-26T11:12:07;26.50;45.80
58153;DHT22;43967;51.634;5.566;2023-06-26T11:17:29;26.50;45.60
58153;DHT22;43967;51.634;5.566;2023-06-26T11:22:52;26.50;45.80
58153;DHT22;43967;51.634;5.566;2023-06-26T11:28:14;26.50;45.50
58153;DHT22;43967;51.634;5.566;2023-06-26T11:33:39;26.40;45.40
58153;DHT22;43967;51.634;5.566;2023-06-26T11:39:01;26.40;45.50
58153;DHT22;43967;51.634;5.566;2023-06-26T11:44:23;26.40;45.40
58153;DHT22;43967;51.634;5.566;2023-06-26T11:49:46;26.40;45.90
58153;DHT22;43967;51.634;5.566;2023-06-26T11:55:07;26.40;45.60
58153;DHT22;43967;51.634;5.566;2023-06-26T12:00:29;26.40;45.80
58153;DHT22;43967;51.634;5.566;2023-06-26T12:05:50;26.40;45.80
58153;DHT22;43967;51.634;5.566;2023-06-26T12:11:13;26.40;45.20
58153;DHT22;43967;51.634;5.566;2023-06-26T12:16:35;26.40;44.80
58153;DHT22;43967;51.634;5.566;2023-06-26T12:21:57;26.50;45.50
58153;DHT22;43967;51.634;5.566;2023-06-26T12:27:19;26.50;45.50
58153;DHT22;43967;51.634;5.566;2023-06-26T12:32:43;26.40;44.50
58153;DHT22;43967;51.634;5.566;2023-06-26T12:38:07;26.50;45.10
58153;DHT22;43967;51.634;5.566;2023-06-26T12:43:29;26.40;45.70
58153;DHT22;43967;51.634;5.566;2023-06-26T12:48:54;26.50;45.70
58153;DHT22;43967;51.634;5.566;2023-06-26T12:54:15;26.50;45.50
58153;DHT22;43967;51.634;5.566;2023-06-26T12:59:37;26.50;45.10
58153;DHT22;43967;51.634;5.566;2023-06-26T13:04:59;26.50;44.90
58153;DHT22;43967;51.634;5.566;2023-06-26T13:10:20;26.50;44.70
58153;DHT22;43967;51.634;5.566;2023-06-26T13:15:41;26.50;44.50
58153;DHT22;43967;51.634;5.566;2023-06-26T13:21:02;26.60;44.10
58153;DHT22;43967;51.634;5.566;2023-06-26T13:26:24;26.60;43.60
58153;DHT22;43967;51.634;5.566;2023-06-26T13:31:45;26.60;43.80
58153;DHT22;43967;51.634;5.566;2023-06-26T13:37:13;26.50;43.40
58153;DHT22;43967;51.634;5.566;2023-06-26T13:42:35;26.50;43.20
58153;DHT22;43967;51.634;5.566;2023-06-26T13:47:56;26.50;43.40
58153;DHT22;43967;51.634;5.566;2023-06-26T13:53:17;26.40;43.30
58153;DHT22;43967;51.634;5.566;2023-06-26T13:58:39;26.50;43.20
58153;DHT22;43967;51.634;5.566;2023-06-26T14:04:00;26.50;43.40
58153;DHT22;43967;51.634;5.566;2023-06-26T14:09:21;26.50;43.40
58153;DHT22;43967;51.634;5.566;2023-06-26T14:14:43;26.40;43.40
58153;DHT22;43967;51.634;5.566;2023-06-26T14:20:04;26.40;43.40
58153;DHT22;43967;51.634;5.566;2023-06-26T14:25:26;26.40;42.80
58153;DHT22;43967;51.634;5.566;2023-06-26T14:30:47;26.50;43.00
58153;DHT22;43967;51.634;5.566;2023-06-26T14:36:10;26.50;43.00
58153;DHT22;43967;51.634;5.566;2023-06-26T14:41:31;26.40;42.80
58153;DHT22;43967;51.634;5.566;2023-06-26T14:46:52;26.50;43.00
58153;DHT22;43967;51.634;5.566;2023-06-26T14:52:13;26.40;43.00
58153;DHT22;43967;51.634;5.566;2023-06-26T14:57:35;26.40;43.30
58153;DHT22;43967;51.634;5.566;2023-06-26T15:02:56;26.40;43.40
58153;DHT22;43967;51.634;5.566;2023-06-26T15:08:17;26.40;43.90
58153;DHT22;43967;51.634;5.566;2023-06-26T15:13:38;26.40;44.10
58153;DHT22;43967;51.634;5.566;2023-06-26T15:19:00;26.50;44.70
58153;DHT22;43967;51.634;5.566;2023-06-26T15:24:21;26.50;44.20
58153;DHT22;43967;51.634;5.566;2023-06-26T15:29:42;26.50;44.30
58153;DHT22;43967;51.634;5.566;2023-06-26T15:35:04;26.50;44.00
58153;DHT22;43967;51.634;5.566;2023-06-26T15:40:25;26.40;43.50
58153;DHT22;43967;51.634;5.566;2023-06-26T15:45:47;26.40;43.20
58153;DHT22;43967;51.634;5.566;2023-06-26T15:51:08;26.30;43.10
58153;DHT22;43967;51.634;5.566;2023-06-26T15:56:30;26.20;43.50
58153;DHT22;43967;51.634;5.566;2023-06-26T16:01:51;26.20;44.10
58153;DHT22;43967;51.634;5.566;2023-06-26T16:07:12;26.10;44.80
58153;DHT22;43967;51.634;5.566;2023-06-26T16:12:33;26.10;45.20
58153;DHT22;43967;51.634;5.566;2023-06-26T16:17:55;26.10;45.40
58153;DHT22;43967;51.634;5.566;2023-06-26T16:23:17;26.20;45.80
58153;DHT22;43967;51.634;5.566;2023-06-26T16:28:38;26.10;45.60
58153;DHT22;43967;51.634;5.566;2023-06-26T16:34:00;26.00;45.60
58153;DHT22;43967;51.634;5.566;2023-06-26T16:39:22;25.90;45.60
58153;DHT22;43967;51.634;5.566;2023-06-26T16:44:43;25.90;45.90
58153;DHT22;43967;51.634;5.566;2023-06-26T16:50:05;25.80;45.70
58153;DHT22;43967;51.634;5.566;2023-06-26T16:55:26;25.80;45.60
58153;DHT22;43967;51.634;5.566;2023-06-26T17:00:48;25.80;45.40
58153;DHT22;43967;51.634;5.566;2023-06-26T17:06:09;25.80;45.50
58153;DHT22;43967;51.634;5.566;2023-06-26T17:11:30;25.90;45.30
58153;DHT22;43967;51.634;5.566;2023-06-26T17:16:51;25.80;44.70
58153;DHT22;43967;51.634;5.566;2023-06-26T17:22:13;25.80;44.90
58153;DHT22;43967;51.634;5.566;2023-06-26T17:27:34;25.70;44.90
58153;DHT22;43967;51.634;5.566;2023-06-26T17:32:55;25.70;44.90
58153;DHT22;43967;51.634;5.566;2023-06-26T17:38:17;25.70;44.80
58153;DHT22;43967;51.634;5.566;2023-06-26T17:43:38;25.60;44.60
58153;DHT22;43967;51.634;5.566;2023-06-26T17:48:59;25.60;44.50
58153;DHT22;43967;51.634;5.566;2023-06-26T17:54:20;25.60;44.00
58153;DHT22;43967;51.634;5.566;2023-06-26T17:59:42;25.50;44.20
58153;DHT22;43967;51.634;5.566;2023-06-26T18:05:04;25.40;44.30
58153;DHT22;43967;51.634;5.566;2023-06-26T18:10:25;25.40;46.30
58153;DHT22;43967;51.634;5.566;2023-06-26T18:15:46;25.40;46.30
58153;DHT22;43967;51.634;5.566;2023-06-26T18:21:08;25.30;47.00
58153;DHT22;43967;51.634;5.566;2023-06-26T18:26:29;25.20;48.00
58153;DHT22;43967;51.634;5.566;2023-06-26T18:31:51;25.20;48.60
58153;DHT22;43967;51.634;5.566;2023-06-26T18:37:12;25.20;48.90
58153;DHT22;43967;51.634;5.566;2023-06-26T18:42:33;25.20;48.30
58153;DHT22;43967;51.634;5.566;2023-06-26T18:47:55;25.20;48.30
58153;DHT22;43967;51.634;5.566;2023-06-26T18:53:16;25.20;49.50
58153;DHT22;43967;51.634;5.566;2023-06-26T18:58:37;25.60;48.70
58153;DHT22;43967;51.634;5.566;2023-06-26T19:03:58;25.80;48.70
58153;DHT22;43967;51.634;5.566;2023-06-26T19:09:20;25.80;48.90
58153;DHT22;43967;51.634;5.566;2023-06-26T19:14:41;25.90;49.40
58153;DHT22;43967;51.634;5.566;2023-06-26T19:20:03;26.00;49.40
58153;DHT22;43967;51.634;5.566;2023-06-26T19:25:24;26.10;49.70
58153;DHT22;43967;51.634;5.566;2023-06-26T19:30:45;26.10;49.70
58153;DHT22;43967;51.634;5.566;2023-06-26T19:36:07;26.10;49.90
58153;DHT22;43967;51.634;5.566;2023-06-26T19:41:28;26.20;49.70
58153;DHT22;43967;51.634;5.566;2023-06-26T19:46:49;26.20;49.90
58153;DHT22;43967;51.634;5.566;2023-06-26T19:52:10;26.20;50.10
58153;DHT22;43967;51.634;5.566;2023-06-26T19:57:32;26.20;50.20
58153;DHT22;43967;51.634;5.566;2023-06-26T20:02:53;26.20;50.50
58153;DHT22;43967;51.634;5.566;2023-06-26T20:08:14;26.20;49.60
58153;DHT22;43967;51.634;5.566;2023-06-26T20:13:36;25.50;48.00
58153;DHT22;43967;51.634;5.566;2023-06-26T20:18:57;25.20;48.50
58153;DHT22;43967;51.634;5.566;2023-06-26T20:24:18;25.00;48.70
58153;DHT22;43967;51.634;5.566;2023-06-26T20:29:40;24.90;49.00
58153;DHT22;43967;51.634;5.566;2023-06-26T20:35:01;24.80;49.30
58153;DHT22;43967;51.634;5.566;2023-06-26T20:40:23;24.70;49.40
58153;DHT22;43967;51.634;5.566;2023-06-26T20:45:44;24.50;49.40
58153;DHT22;43967;51.634;5.566;2023-06-26T20:51:06;24.60;49.70
58153;DHT22;43967;51.634;5.566;2023-06-26T20:56:28;24.90;49.20
58153;DHT22;43967;51.634;5.566;2023-06-26T21:01:49;25.20;49.00
58153;DHT22;43967;51.634;5.566;2023-06-26T21:07:10;25.30;48.90
58153;DHT22;43967;51.634;5.566;2023-06-26T21:12:31;25.40;49.30
58153;DHT22;43967;51.634;5.566;2023-06-26T21:17:53;25.40;49.30
58153;DHT22;43967;51.634;5.566;2023-06-26T21:23:14;25.50;49.40
58153;DHT22;43967;51.634;5.566;2023-06-26T21:28:35;25.60;49.50
58153;DHT22;43967;51.634;5.566;2023-06-26T21:33:56;25.60;49.60
58153;DHT22;43967;51.634;5.566;2023-06-26T21:39:18;25.60;49.60
58153;DHT22;43967;51.634;5.566;2023-06-26T21:44:39;25.60;49.70
58153;DHT22;43967;51.634;5.566;2023-06-26T21:50:01;25.60;49.70
58153;DHT22;43967;51.634;5.566;2023-06-26T21:55:22;25.60;49.70
58153;DHT22;43967;51.634;5.566;2023-06-26T22:00:43;25.70;49.80
58153;DHT22;43967;51.634;5.566;2023-06-26T22:06:05;25.60;49.80
58153;DHT22;43967;51.634;5.566;2023-06-26T22:11:26;25.60;50.60
58153;DHT22;43967;51.634;5.566;2023-06-26T22:16:47;25.70;50.00
58153;DHT22;43967;51.634;5.566;2023-06-26T22:22:09;25.70;50.00
58153;DHT22;43967;51.634;5.566;2023-06-26T22:27:31;25.70;50.80
58153;DHT22;43967;51.634;5.566;2023-06-26T22:32:52;25.60;50.00
58153;DHT22;43967;51.634;5.566;2023-06-26T22:38:13;25.60;50.10
58153;DHT22;43967;51.634;5.566;2023-06-26T22:43:34;25.70;50.20
58153;DHT22;43967;51.634;5.566;2023-06-26T22:48:56;25.70;50.20
58153;DHT22;43967;51.634;5.566;2023-06-26T22:54:17;25.70;50.30
58153;DHT22;43967;51.634;5.566;2023-06-26T22:59:38;25.60;50.30
58153;DHT22;43967;51.634;5.566;2023-06-26T23:04:59;25.60;50.30
58153;DHT22;43967;51.634;5.566;2023-06-26T23:10:21;25.70;50.40
58153;DHT22;43967;51.634;5.566;2023-06-26T23:15:42;25.70;50.40
58153;DHT22;43967;51.634;5.566;2023-06-26T23:21:03;25.60;50.40
58153;DHT22;43967;51.634;5.566;2023-06-26T23:26:25;25.60;50.50
58153;DHT22;43967;51.634;5.566;2023-06-26T23:31:46;25.60;50.60
58153;DHT22;43967;51.634;5.566;2023-06-26T23:37:08;25.60;50.60
58153;DHT22;43967;51.634;5.566;2023-06-26T23:42:29;25.60;50.70
58153;DHT22;43967;51.634;5.566;2023-06-26T23:47:51;25.60;50.70
58153;DHT22;43967;51.634;5.566;2023-06-26T23:53:12;25.60;50.70
58153;DHT22;43967;51.634;5.566;2023-06-26T23:58:33;25.60;50.80
